sensor_id;sensor_type;location;lat;lon;timestamp;temperature;humidity
44705;DHT22;30431;48.520;9.046;2023-07-20T00:02:26;19.10;75.40
44705;DHT22;30431;48.520;9.046;2023-07-20T00:04:53;19.10;75.60
44705;DHT22;30431;48.520;9.046;2023-07-20T00:07:22;19.00;75.20
44705;DHT22;30431;48.520;9.046;2023-07-20T00:09:52;19.00;75.20
44705;DHT22;30431;48.520;9.046;2023-07-20T00:12:21;18.90;75.80
44705;DHT22;30431;48.520;9.046;2023-07-20T00:14:48;18.90;75.40
44705;DHT22;30431;48.520;9.046;2023-07-20T00:17:15;18.80;75.30
44705;DHT22;30431;48.520;9.046;2023-07-20T00:19:42;18.80;75.70
44705;DHT22;30431;48.520;9.046;2023-07-20T00:22:09;18.80;75.30
44705;DHT22;30431;48.520;9.046;2023-07-20T00:24:39;18.70;75.70
44705;DHT22;30431;48.520;9.046;2023-07-20T00:27:09;18.60;75.70
44705;DHT22;30431;48.520;9.046;2023-07-20T00:29:38;18.60;76.00
44705;DHT22;30431;48.520;9.046;2023-07-20T00:32:07;18.50;77.40
44705;DHT22;30431;48.520;9.046;2023-07-20T00:34:37;18.50;76.30
44705;DHT22;30431;48.520;9.046;2023-07-20T00:37:04;18.50;76.00
44705;DHT22;30431;48.520;9.046;2023-07-20T00:39:31;18.30;76.20
44705;DHT22;30431;48.520;9.046;2023-07-20T00:41:58;18.30;76.50
44705;DHT22;30431;48.520;9.046;2023-07-20T00:44:28;18.10;76.80
44705;DHT22;30431;48.520;9.046;2023-07-20T00:46:55;18.10;77.20
44705;DHT22;30431;48.520;9.046;2023-07-20T00:49:25;17.90;77.90
44705;DHT22;30431;48.520;9.046;2023-07-20T00:51:52;17.90;78.10
44705;DHT22;30431;48.520;9.046;2023-07-20T00:54:24;17.80;78.20
44705;DHT22;30431;48.520;9.046;2023-07-20T00:56:53;17.70;78.90
44705;DHT22;30431;48.520;9.046;2023-07-20T00:59:20;17.60;79.00
44705;DHT22;30431;48.520;9.046;2023-07-20T01:01:50;17.60;79.90
44705;DHT22;30431;48.520;9.046;2023-07-20T01:04:19;17.50;79.50
44705;DHT22;30431;48.520;9.046;2023-07-20T01:07:11;17.50;80.10
44705;DHT22;30431;48.520;9.046;2023-07-20T01:09:48;17.60;79.60
44705;DHT22;30431;48.520;9.046;2023-07-20T01:12:44;17.60;79.80
44705;DHT22;30431;48.520;9.046;2023-07-20T01:15:13;17.50;80.20
44705;DHT22;30431;48.520;9.046;2023-07-20T01:17:40;17.40;80.70
44705;DHT22;30431;48.520;9.046;2023-07-20T01:20:14;17.30;80.60
44705;DHT22;30431;48.520;9.046;2023-07-20T01:31:34;17.10;81.40
44705;DHT22;30431;48.520;9.046;2023-07-20T01:34:04;17.10;81.70
44705;DHT22;30431;48.520;9.046;2023-07-20T01:36:36;17.00;81.90
44705;DHT22;30431;48.520;9.046;2023-07-20T01:39:06;17.00;82.20
44705;DHT22;30431;48.520;9.046;2023-07-20T01:41:35;16.90;82.90
44705;DHT22;30431;48.520;9.046;2023-07-20T01:44:03;16.90;82.40
44705;DHT22;30431;48.520;9.046;2023-07-20T01:46:30;16.80;82.70
44705;DHT22;30431;48.520;9.046;2023-07-20T01:49:00;16.70;82.70
44705;DHT22;30431;48.520;9.046;2023-07-20T01:51:31;16.70;83.10
44705;DHT22;30431;48.520;9.046;2023-07-20T01:54:00;16.70;83.60
44705;DHT22;30431;48.520;9.046;2023-07-20T01:56:27;16.80;83.20
44705;DHT22;30431;48.520;9.046;2023-07-20T01:58:54;16.70;83.50
44705;DHT22;30431;48.520;9.046;2023-07-20T02:01:21;16.70;83.70
44705;DHT22;30431;48.520;9.046;2023-07-20T02:03:49;16.60;83.50
44705;DHT22;30431;48.520;9.046;2023-07-20T02:06:17;16.60;83.60
44705;DHT22;30431;48.520;9.046;2023-07-20T02:08:48;16.60;83.70
44705;DHT22;30431;48.520;9.046;2023-07-20T02:11:17;16.70;84.10
44705;DHT22;30431;48.520;9.046;2023-07-20T02:13:44;16.70;83.30
44705;DHT22;30431;48.520;9.046;2023-07-20T02:16:11;16.70;83.30
44705;DHT22;30431;48.520;9.046;2023-07-20T02:18:38;16.70;83.00
44705;DHT22;30431;48.520;9.046;2023-07-20T02:21:07;16.70;83.10
44705;DHT22;30431;48.520;9.046;2023-07-20T02:23:34;16.60;83.30
44705;DHT22;30431;48.520;9.046;2023-07-20T02:26:03;16.50;84.70
44705;DHT22;30431;48.520;9.046;2023-07-20T02:28:30;16.40;84.60
44705;DHT22;30431;48.520;9.046;2023-07-20T02:30:57;16.40;84.60
44705;DHT22;30431;48.520;9.046;2023-07-20T02:33:24;16.30;85.90
44705;DHT22;30431;48.520;9.046;2023-07-20T02:35:51;16.30;85.00
44705;DHT22;30431;48.520;9.046;2023-07-20T02:38:18;16.30;85.00
44705;DHT22;30431;48.520;9.046;2023-07-20T02:40:48;16.30;85.00
44705;DHT22;30431;48.520;9.046;2023-07-20T02:43:15;16.30;86.40
44705;DHT22;30431;48.520;9.046;2023-07-20T02:45:45;16.20;85.20
44705;DHT22;30431;48.520;9.046;2023-07-20T02:48:13;16.20;85.40
44705;DHT22;30431;48.520;9.046;2023-07-20T02:50:41;16.10;85.60
44705;DHT22;30431;48.520;9.046;2023-07-20T02:53:08;16.00;86.30
44705;DHT22;30431;48.520;9.046;2023-07-20T02:55:35;16.00;86.10
44705;DHT22;30431;48.520;9.046;2023-07-20T02:58:04;16.00;85.80
44705;DHT22;30431;48.520;9.046;2023-07-20T03:00:33;15.90;86.00
44705;DHT22;30431;48.520;9.046;2023-07-20T03:03:00;15.80;86.40
44705;DHT22;30431;48.520;9.046;2023-07-20T03:05:30;15.70;86.70
44705;DHT22;30431;48.520;9.046;2023-07-20T03:07:57;15.60;87.10
44705;DHT22;30431;48.520;9.046;2023-07-20T03:10:32;15.60;87.50
44705;DHT22;30431;48.520;9.046;2023-07-20T03:12:59;15.50;88.50
44705;DHT22;30431;48.520;9.046;2023-07-20T03:15:26;15.40;88.80
44705;DHT22;30431;48.520;9.046;2023-07-20T03:17:58;15.40;88.90
44705;DHT22;30431;48.520;9.046;2023-07-20T03:20:27;15.40;88.90
44705;DHT22;30431;48.520;9.046;2023-07-20T03:22:54;15.30;90.00
44705;DHT22;30431;48.520;9.046;2023-07-20T03:25:21;15.20;90.20
44705;DHT22;30431;48.520;9.046;2023-07-20T03:27:49;15.20;90.60
44705;DHT22;30431;48.520;9.046;2023-07-20T03:30:16;15.10;90.70
44705;DHT22;30431;48.520;9.046;2023-07-20T03:32:46;15.10;91.40
44705;DHT22;30431;48.520;9.046;2023-07-20T03:35:13;15.00;91.50
44705;DHT22;30431;48.520;9.046;2023-07-20T03:37:40;15.00;92.10
44705;DHT22;30431;48.520;9.046;2023-07-20T03:40:07;15.00;92.00
44705;DHT22;30431;48.520;9.046;2023-07-20T03:42:34;14.90;91.90
44705;DHT22;30431;48.520;9.046;2023-07-20T03:45:01;14.90;92.00
44705;DHT22;30431;48.520;9.046;2023-07-20T03:47:29;14.90;91.60
44705;DHT22;30431;48.520;9.046;2023-07-20T03:49:57;14.80;91.90
44705;DHT22;30431;48.520;9.046;2023-07-20T03:52:26;14.80;92.60
44705;DHT22;30431;48.520;9.046;2023-07-20T03:54:53;14.70;92.90
44705;DHT22;30431;48.520;9.046;2023-07-20T03:57:21;14.70;93.20
44705;DHT22;30431;48.520;9.046;2023-07-20T03:59:50;14.70;93.40
44705;DHT22;30431;48.520;9.046;2023-07-20T04:02:17;14.80;93.20
44705;DHT22;30431;48.520;9.046;2023-07-20T04:04:46;14.70;93.10
44705;DHT22;30431;48.520;9.046;2023-07-20T04:07:15;14.80;92.80
44705;DHT22;30431;48.520;9.046;2023-07-20T04:09:45;14.80;92.80
44705;DHT22;30431;48.520;9.046;2023-07-20T04:12:12;14.80;92.90
44705;DHT22;30431;48.520;9.046;2023-07-20T04:14:39;14.80;93.00
44705;DHT22;30431;48.520;9.046;2023-07-20T04:17:06;14.90;93.70
44705;DHT22;30431;48.520;9.046;2023-07-20T04:19:33;14.90;93.10
44705;DHT22;30431;48.520;9.046;2023-07-20T04:22:00;15.00;93.10
44705;DHT22;30431;48.520;9.046;2023-07-20T04:24:28;15.10;92.30
44705;DHT22;30431;48.520;9.046;2023-07-20T04:26:55;15.10;92.00
44705;DHT22;30431;48.520;9.046;2023-07-20T04:29:24;15.10;91.90
44705;DHT22;30431;48.520;9.046;2023-07-20T04:31:51;15.00;92.20
44705;DHT22;30431;48.520;9.046;2023-07-20T04:34:21;14.90;92.30
44705;DHT22;30431;48.520;9.046;2023-07-20T04:36:50;14.90;93.00
44705;DHT22;30431;48.520;9.046;2023-07-20T04:39:17;14.90;93.30
44705;DHT22;30431;48.520;9.046;2023-07-20T04:42:04;15.00;92.60
44705;DHT22;30431;48.520;9.046;2023-07-20T04:44:31;15.00;92.40
44705;DHT22;30431;48.520;9.046;2023-07-20T04:46:58;15.10;92.40
44705;DHT22;30431;48.520;9.046;2023-07-20T04:49:25;15.30;92.10
44705;DHT22;30431;48.520;9.046;2023-07-20T04:51:53;15.50;92.00
44705;DHT22;30431;48.520;9.046;2023-07-20T04:54:20;15.50;91.70
44705;DHT22;30431;48.520;9.046;2023-07-20T04:56:48;15.50;91.40
44705;DHT22;30431;48.520;9.046;2023-07-20T04:59:23;15.50;91.10
44705;DHT22;30431;48.520;9.046;2023-07-20T05:01:55;15.40;91.30
44705;DHT22;30431;48.520;9.046;2023-07-20T05:04:22;15.50;91.40
44705;DHT22;30431;48.520;9.046;2023-07-20T05:06:52;16.10;90.40
44705;DHT22;30431;48.520;9.046;2023-07-20T05:09:23;16.70;89.20
44705;DHT22;30431;48.520;9.046;2023-07-20T05:11:50;17.10;85.80
44705;DHT22;30431;48.520;9.046;2023-07-20T05:14:17;17.00;86.20
44705;DHT22;30431;48.520;9.046;2023-07-20T05:16:45;17.10;85.20
44705;DHT22;30431;48.520;9.046;2023-07-20T05:19:15;17.50;84.00
44705;DHT22;30431;48.520;9.046;2023-07-20T05:22:17;17.30;84.20
44705;DHT22;30431;48.520;9.046;2023-07-20T05:24:45;17.40;84.20
44705;DHT22;30431;48.520;9.046;2023-07-20T05:27:12;17.60;84.40
44705;DHT22;30431;48.520;9.046;2023-07-20T05:29:46;17.70;85.10
44705;DHT22;30431;48.520;9.046;2023-07-20T05:32:15;18.00;83.80
44705;DHT22;30431;48.520;9.046;2023-07-20T05:34:42;17.80;81.60
44705;DHT22;30431;48.520;9.046;2023-07-20T05:37:11;17.50;83.50
44705;DHT22;30431;48.520;9.046;2023-07-20T05:39:41;17.30;83.90
44705;DHT22;30431;48.520;9.046;2023-07-20T05:42:11;17.60;84.50
44705;DHT22;30431;48.520;9.046;2023-07-20T05:44:41;17.40;83.10
44705;DHT22;30431;48.520;9.046;2023-07-20T05:47:10;17.50;83.20
44705;DHT22;30431;48.520;9.046;2023-07-20T05:49:40;17.50;83.10
44705;DHT22;30431;48.520;9.046;2023-07-20T05:52:09;17.60;83.20
44705;DHT22;30431;48.520;9.046;2023-07-20T05:54:36;17.50;83.50
44705;DHT22;30431;48.520;9.046;2023-07-20T05:57:06;17.60;83.20
44705;DHT22;30431;48.520;9.046;2023-07-20T05:59:35;17.90;83.10
44705;DHT22;30431;48.520;9.046;2023-07-20T06:02:05;18.10;81.70
44705;DHT22;30431;48.520;9.046;2023-07-20T06:04:32;18.10;81.00
44705;DHT22;30431;48.520;9.046;2023-07-20T06:06:59;18.40;81.30
44705;DHT22;30431;48.520;9.046;2023-07-20T06:09:26;18.80;79.40
44705;DHT22;30431;48.520;9.046;2023-07-20T06:11:56;19.00;77.80
44705;DHT22;30431;48.520;9.046;2023-07-20T06:14:26;19.20;77.40
44705;DHT22;30431;48.520;9.046;2023-07-20T06:16:52;19.30;77.10
44705;DHT22;30431;48.520;9.046;2023-07-20T06:19:22;19.40;76.50
44705;DHT22;30431;48.520;9.046;2023-07-20T06:21:49;19.50;74.90
44705;DHT22;30431;48.520;9.046;2023-07-20T06:24:17;19.60;75.70
44705;DHT22;30431;48.520;9.046;2023-07-20T06:26:44;20.00;74.90
44705;DHT22;30431;48.520;9.046;2023-07-20T06:29:11;20.40;72.90
44705;DHT22;30431;48.520;9.046;2023-07-20T06:31:40;20.40;70.70
44705;DHT22;30431;48.520;9.046;2023-07-20T06:34:07;20.40;71.10
44705;DHT22;30431;48.520;9.046;2023-07-20T06:36:34;20.50;71.60
44705;DHT22;30431;48.520;9.046;2023-07-20T06:39:02;20.60;72.20
44705;DHT22;30431;48.520;9.046;2023-07-20T06:41:35;20.80;71.70
44705;DHT22;30431;48.520;9.046;2023-07-20T06:44:04;20.90;70.90
44705;DHT22;30431;48.520;9.046;2023-07-20T06:46:35;21.10;69.90
44705;DHT22;30431;48.520;9.046;2023-07-20T06:49:02;21.20;68.30
44705;DHT22;30431;48.520;9.046;2023-07-20T06:51:32;20.90;68.90
44705;DHT22;30431;48.520;9.046;2023-07-20T06:54:14;21.10;69.80
44705;DHT22;30431;48.520;9.046;2023-07-20T06:56:41;21.50;69.80
44705;DHT22;30431;48.520;9.046;2023-07-20T06:59:12;21.70;68.00
44705;DHT22;30431;48.520;9.046;2023-07-20T07:01:39;21.80;67.40
44705;DHT22;30431;48.520;9.046;2023-07-20T07:04:08;21.90;67.10
44705;DHT22;30431;48.520;9.046;2023-07-20T07:06:38;22.00;66.40
44705;DHT22;30431;48.520;9.046;2023-07-20T07:09:08;22.50;66.20
44705;DHT22;30431;48.520;9.046;2023-07-20T07:11:36;22.60;66.30
44705;DHT22;30431;48.520;9.046;2023-07-20T07:14:06;22.70;65.20
44705;DHT22;30431;48.520;9.046;2023-07-20T07:16:34;23.00;64.60
44705;DHT22;30431;48.520;9.046;2023-07-20T07:19:05;23.20;64.10
44705;DHT22;30431;48.520;9.046;2023-07-20T07:21:36;23.50;62.80
44705;DHT22;30431;48.520;9.046;2023-07-20T07:24:09;23.50;62.40
44705;DHT22;30431;48.520;9.046;2023-07-20T07:26:37;23.60;62.80
44705;DHT22;30431;48.520;9.046;2023-07-20T07:29:03;23.60;62.60
44705;DHT22;30431;48.520;9.046;2023-07-20T07:31:34;23.60;64.30
44705;DHT22;30431;48.520;9.046;2023-07-20T07:34:05;23.60;61.00
44705;DHT22;30431;48.520;9.046;2023-07-20T07:36:33;23.40;60.20
44705;DHT22;30431;48.520;9.046;2023-07-20T07:39:03;23.30;62.00
44705;DHT22;30431;48.520;9.046;2023-07-20T07:41:50;23.40;61.10
44705;DHT22;30431;48.520;9.046;2023-07-20T07:44:18;23.70;60.40
44705;DHT22;30431;48.520;9.046;2023-07-20T07:46:45;23.80;59.90
44705;DHT22;30431;48.520;9.046;2023-07-20T07:49:12;23.50;60.50
44705;DHT22;30431;48.520;9.046;2023-07-20T07:51:39;23.50;62.80
44705;DHT22;30431;48.520;9.046;2023-07-20T07:54:06;23.20;60.10
44705;DHT22;30431;48.520;9.046;2023-07-20T07:56:34;22.70;62.00
44705;DHT22;30431;48.520;9.046;2023-07-20T07:59:03;22.50;63.20
44705;DHT22;30431;48.520;9.046;2023-07-20T08:01:31;22.70;63.40
44705;DHT22;30431;48.520;9.046;2023-07-20T08:03:58;23.20;64.10
44705;DHT22;30431;48.520;9.046;2023-07-20T08:06:30;23.20;61.20
44705;DHT22;30431;48.520;9.046;2023-07-20T08:09:00;23.20;59.80
44705;DHT22;30431;48.520;9.046;2023-07-20T08:11:27;22.90;62.20
44705;DHT22;30431;48.520;9.046;2023-07-20T08:13:54;23.10;61.90
44705;DHT22;30431;48.520;9.046;2023-07-20T08:16:21;23.30;60.00
44705;DHT22;30431;48.520;9.046;2023-07-20T08:18:53;23.90;60.10
44705;DHT22;30431;48.520;9.046;2023-07-20T08:21:23;24.20;58.90
44705;DHT22;30431;48.520;9.046;2023-07-20T08:23:52;24.30;56.70
44705;DHT22;30431;48.520;9.046;2023-07-20T08:26:19;24.40;56.50
44705;DHT22;30431;48.520;9.046;2023-07-20T08:28:50;24.50;56.40
44705;DHT22;30431;48.520;9.046;2023-07-20T08:31:19;24.10;56.50
44705;DHT22;30431;48.520;9.046;2023-07-20T08:33:47;23.80;57.90
44705;DHT22;30431;48.520;9.046;2023-07-20T08:36:14;23.70;58.50
44705;DHT22;30431;48.520;9.046;2023-07-20T08:38:42;24.00;59.10
44705;DHT22;30431;48.520;9.046;2023-07-20T08:41:11;24.30;58.40
44705;DHT22;30431;48.520;9.046;2023-07-20T08:43:42;24.10;57.80
44705;DHT22;30431;48.520;9.046;2023-07-20T08:46:11;23.80;59.30
44705;DHT22;30431;48.520;9.046;2023-07-20T08:48:42;23.90;58.60
44705;DHT22;30431;48.520;9.046;2023-07-20T08:51:12;24.20;57.90
44705;DHT22;30431;48.520;9.046;2023-07-20T08:53:39;24.30;58.10
44705;DHT22;30431;48.520;9.046;2023-07-20T08:56:09;24.20;55.40
44705;DHT22;30431;48.520;9.046;2023-07-20T08:58:39;24.10;56.20
44705;DHT22;30431;48.520;9.046;2023-07-20T09:01:07;23.90;56.80
44705;DHT22;30431;48.520;9.046;2023-07-20T09:03:37;23.80;58.00
44705;DHT22;30431;48.520;9.046;2023-07-20T09:06:06;24.00;58.30
44705;DHT22;30431;48.520;9.046;2023-07-20T09:08:37;24.20;56.10
44705;DHT22;30431;48.520;9.046;2023-07-20T09:11:04;24.10;55.50
44705;DHT22;30431;48.520;9.046;2023-07-20T09:13:32;24.60;55.80
44705;DHT22;30431;48.520;9.046;2023-07-20T09:16:06;24.60;54.40
44705;DHT22;30431;48.520;9.046;2023-07-20T09:18:38;24.40;53.50
44705;DHT22;30431;48.520;9.046;2023-07-20T09:21:06;24.30;54.80
44705;DHT22;30431;48.520;9.046;2023-07-20T09:23:37;24.40;53.00
44705;DHT22;30431;48.520;9.046;2023-07-20T09:26:16;24.10;50.60
44705;DHT22;30431;48.520;9.046;2023-07-20T09:28:51;24.10;51.60
44705;DHT22;30431;48.520;9.046;2023-07-20T09:31:21;23.80;52.20
44705;DHT22;30431;48.520;9.046;2023-07-20T09:33:50;23.60;52.60
44705;DHT22;30431;48.520;9.046;2023-07-20T09:36:21;23.40;52.60
44705;DHT22;30431;48.520;9.046;2023-07-20T09:39:10;23.70;52.30
44705;DHT22;30431;48.520;9.046;2023-07-20T09:41:40;23.70;51.70
44705;DHT22;30431;48.520;9.046;2023-07-20T09:44:18;23.70;51.20
44705;DHT22;30431;48.520;9.046;2023-07-20T09:46:50;24.10;51.60
44705;DHT22;30431;48.520;9.046;2023-07-20T09:49:22;24.30;50.50
44705;DHT22;30431;48.520;9.046;2023-07-20T09:51:55;24.40;49.90
44705;DHT22;30431;48.520;9.046;2023-07-20T09:54:26;24.50;48.40
44705;DHT22;30431;48.520;9.046;2023-07-20T09:56:56;24.50;47.80
44705;DHT22;30431;48.520;9.046;2023-07-20T09:59:23;24.50;47.70
44705;DHT22;30431;48.520;9.046;2023-07-20T10:01:50;24.70;47.40
44705;DHT22;30431;48.520;9.046;2023-07-20T10:04:21;24.50;47.40
44705;DHT22;30431;48.520;9.046;2023-07-20T10:06:52;24.80;48.00
44705;DHT22;30431;48.520;9.046;2023-07-20T10:09:24;24.80;47.50
44705;DHT22;30431;48.520;9.046;2023-07-20T10:11:53;24.80;47.70
44705;DHT22;30431;48.520;9.046;2023-07-20T10:14:41;24.60;45.40
44705;DHT22;30431;48.520;9.046;2023-07-20T10:17:14;24.60;45.50
44705;DHT22;30431;48.520;9.046;2023-07-20T10:19:46;25.10;44.50
44705;DHT22;30431;48.520;9.046;2023-07-20T10:22:27;25.30;43.50
44705;DHT22;30431;48.520;9.046;2023-07-20T10:25:08;25.40;42.90
44705;DHT22;30431;48.520;9.046;2023-07-20T10:27:36;25.30;43.30
44705;DHT22;30431;48.520;9.046;2023-07-20T10:30:06;25.20;42.70
44705;DHT22;30431;48.520;9.046;2023-07-20T10:32:38;25.40;45.20
44705;DHT22;30431;48.520;9.046;2023-07-20T10:35:15;25.40;41.80
44705;DHT22;30431;48.520;9.046;2023-07-20T10:40:38;25.90;41.00
44705;DHT22;30431;48.520;9.046;2023-07-20T10:43:09;26.50;41.60
44705;DHT22;30431;48.520;9.046;2023-07-20T10:48:15;26.60;40.00
44705;DHT22;30431;48.520;9.046;2023-07-20T10:53:36;26.80;39.50
44705;DHT22;30431;48.520;9.046;2023-07-20T10:56:11;26.30;39.30
44705;DHT22;30431;48.520;9.046;2023-07-20T10:58:40;25.90;40.30
44705;DHT22;30431;48.520;9.046;2023-07-20T11:01:13;25.70;40.90
44705;DHT22;30431;48.520;9.046;2023-07-20T11:03:43;25.50;41.60
44705;DHT22;30431;48.520;9.046;2023-07-20T11:06:34;25.30;41.00
44705;DHT22;30431;48.520;9.046;2023-07-20T11:09:09;25.70;42.30
44705;DHT22;30431;48.520;9.046;2023-07-20T11:11:39;25.80;40.60
44705;DHT22;30431;48.520;9.046;2023-07-20T11:14:08;26.00;39.10
44705;DHT22;30431;48.520;9.046;2023-07-20T11:16:44;26.20;39.40
44705;DHT22;30431;48.520;9.046;2023-07-20T11:19:34;26.70;38.20
44705;DHT22;30431;48.520;9.046;2023-07-20T11:22:07;26.90;38.10
44705;DHT22;30431;48.520;9.046;2023-07-20T11:24:39;26.80;37.70
44705;DHT22;30431;48.520;9.046;2023-07-20T11:27:09;27.30;38.20
44705;DHT22;30431;48.520;9.046;2023-07-20T11:29:37;27.50;37.30
44705;DHT22;30431;48.520;9.046;2023-07-20T11:32:07;27.30;38.40
44705;DHT22;30431;48.520;9.046;2023-07-20T11:34:37;26.60;38.10
44705;DHT22;30431;48.520;9.046;2023-07-20T11:37:08;26.60;38.50
44705;DHT22;30431;48.520;9.046;2023-07-20T11:39:38;26.80;39.70
44705;DHT22;30431;48.520;9.046;2023-07-20T11:42:06;26.70;39.60
44705;DHT22;30431;48.520;9.046;2023-07-20T11:44:34;26.80;39.10
44705;DHT22;30431;48.520;9.046;2023-07-20T11:47:10;25.70;38.80
44705;DHT22;30431;48.520;9.046;2023-07-20T11:49:43;25.50;39.70
44705;DHT22;30431;48.520;9.046;2023-07-20T11:52:11;25.20;39.70
44705;DHT22;30431;48.520;9.046;2023-07-20T11:54:39;25.10;40.30
44705;DHT22;30431;48.520;9.046;2023-07-20T11:57:21;25.30;40.70
44705;DHT22;30431;48.520;9.046;2023-07-20T11:59:58;25.50;40.60
44705;DHT22;30431;48.520;9.046;2023-07-20T12:02:27;25.40;41.10
44705;DHT22;30431;48.520;9.046;2023-07-20T12:04:55;25.20;40.90
44705;DHT22;30431;48.520;9.046;2023-07-20T12:07:27;25.20;40.50
44705;DHT22;30431;48.520;9.046;2023-07-20T12:10:09;25.00;40.40
44705;DHT22;30431;48.520;9.046;2023-07-20T12:12:40;25.20;41.00
44705;DHT22;30431;48.520;9.046;2023-07-20T12:15:22;25.30;40.40
44705;DHT22;30431;48.520;9.046;2023-07-20T12:17:53;25.30;40.80
44705;DHT22;30431;48.520;9.046;2023-07-20T12:20:26;25.20;40.20
44705;DHT22;30431;48.520;9.046;2023-07-20T12:22:59;25.20;39.60
44705;DHT22;30431;48.520;9.046;2023-07-20T12:25:45;24.90;40.20
44705;DHT22;30431;48.520;9.046;2023-07-20T12:28:18;24.70;40.40
44705;DHT22;30431;48.520;9.046;2023-07-20T12:30:46;24.60;40.80
44705;DHT22;30431;48.520;9.046;2023-07-20T12:33:23;24.70;40.30
44705;DHT22;30431;48.520;9.046;2023-07-20T12:35:50;24.90;40.40
44705;DHT22;30431;48.520;9.046;2023-07-20T12:38:18;25.00;39.70
44705;DHT22;30431;48.520;9.046;2023-07-20T12:40:47;25.30;40.70
44705;DHT22;30431;48.520;9.046;2023-07-20T12:43:15;25.30;38.70
44705;DHT22;30431;48.520;9.046;2023-07-20T12:45:42;25.40;39.80
44705;DHT22;30431;48.520;9.046;2023-07-20T12:48:11;25.40;38.10
44705;DHT22;30431;48.520;9.046;2023-07-20T12:50:38;25.40;39.30
44705;DHT22;30431;48.520;9.046;2023-07-20T12:53:05;25.20;39.10
44705;DHT22;30431;48.520;9.046;2023-07-20T12:55:38;25.20;39.20
44705;DHT22;30431;48.520;9.046;2023-07-20T12:58:08;25.10;39.20
44705;DHT22;30431;48.520;9.046;2023-07-20T13:00:35;25.30;40.30
44705;DHT22;30431;48.520;9.046;2023-07-20T13:03:02;25.40;39.60
44705;DHT22;30431;48.520;9.046;2023-07-20T13:05:36;25.40;38.50
44705;DHT22;30431;48.520;9.046;2023-07-20T13:08:06;25.60;39.70
44705;DHT22;30431;48.520;9.046;2023-07-20T13:10:37;25.90;39.90
44705;DHT22;30431;48.520;9.046;2023-07-20T13:13:07;26.10;38.60
44705;DHT22;30431;48.520;9.046;2023-07-20T13:15:44;26.10;37.90
44705;DHT22;30431;48.520;9.046;2023-07-20T13:18:13;26.10;38.40
44705;DHT22;30431;48.520;9.046;2023-07-20T13:20:43;26.00;37.30
44705;DHT22;30431;48.520;9.046;2023-07-20T13:23:10;25.70;37.70
44705;DHT22;30431;48.520;9.046;2023-07-20T13:25:37;25.70;37.50
44705;DHT22;30431;48.520;9.046;2023-07-20T13:28:05;25.80;38.20
44705;DHT22;30431;48.520;9.046;2023-07-20T13:30:32;25.60;37.40
44705;DHT22;30431;48.520;9.046;2023-07-20T13:33:00;25.60;38.10
44705;DHT22;30431;48.520;9.046;2023-07-20T13:35:32;25.70;38.30
44705;DHT22;30431;48.520;9.046;2023-07-20T13:38:02;25.90;37.70
44705;DHT22;30431;48.520;9.046;2023-07-20T13:40:31;26.00;37.00
44705;DHT22;30431;48.520;9.046;2023-07-20T13:43:01;25.90;36.90
44705;DHT22;30431;48.520;9.046;2023-07-20T13:45:28;25.70;36.90
44705;DHT22;30431;48.520;9.046;2023-07-20T13:47:59;25.70;37.70
44705;DHT22;30431;48.520;9.046;2023-07-20T13:50:29;26.00;37.70
44705;DHT22;30431;48.520;9.046;2023-07-20T13:53:13;26.10;37.60
44705;DHT22;30431;48.520;9.046;2023-07-20T13:55:46;26.10;37.30
44705;DHT22;30431;48.520;9.046;2023-07-20T13:58:16;26.00;36.40
44705;DHT22;30431;48.520;9.046;2023-07-20T14:00:47;26.10;37.80
44705;DHT22;30431;48.520;9.046;2023-07-20T14:03:15;26.10;36.80
44705;DHT22;30431;48.520;9.046;2023-07-20T14:05:48;25.90;37.00
44705;DHT22;30431;48.520;9.046;2023-07-20T14:08:21;26.00;37.80
44705;DHT22;30431;48.520;9.046;2023-07-20T14:10:50;25.90;36.70
44705;DHT22;30431;48.520;9.046;2023-07-20T14:13:20;25.80;36.80
44705;DHT22;30431;48.520;9.046;2023-07-20T14:16:01;26.00;37.20
44705;DHT22;30431;48.520;9.046;2023-07-20T14:18:28;25.80;37.10
44705;DHT22;30431;48.520;9.046;2023-07-20T14:20:59;25.70;37.00
44705;DHT22;30431;48.520;9.046;2023-07-20T14:23:26;25.70;37.80
44705;DHT22;30431;48.520;9.046;2023-07-20T14:25:53;25.70;38.10
44705;DHT22;30431;48.520;9.046;2023-07-20T14:28:23;25.30;37.60
44705;DHT22;30431;48.520;9.046;2023-07-20T14:30:50;25.50;41.30
44705;DHT22;30431;48.520;9.046;2023-07-20T14:33:17;25.60;39.50
44705;DHT22;30431;48.520;9.046;2023-07-20T14:35:44;25.70;37.70
44705;DHT22;30431;48.520;9.046;2023-07-20T14:38:11;25.70;37.20
44705;DHT22;30431;48.520;9.046;2023-07-20T14:40:38;25.80;39.10
44705;DHT22;30431;48.520;9.046;2023-07-20T14:43:05;25.70;37.90
44705;DHT22;30431;48.520;9.046;2023-07-20T14:45:32;25.60;38.00
44705;DHT22;30431;48.520;9.046;2023-07-20T14:48:00;25.60;38.70
44705;DHT22;30431;48.520;9.046;2023-07-20T14:50:29;25.70;39.20
44705;DHT22;30431;48.520;9.046;2023-07-20T14:52:58;25.50;38.00
44705;DHT22;30431;48.520;9.046;2023-07-20T14:55:34;25.20;38.60
44705;DHT22;30431;48.520;9.046;2023-07-20T14:58:04;25.20;40.00
44705;DHT22;30431;48.520;9.046;2023-07-20T15:00:31;25.50;39.90
44705;DHT22;30431;48.520;9.046;2023-07-20T15:03:00;25.70;39.70
44705;DHT22;30431;48.520;9.046;2023-07-20T15:05:30;25.80;39.10
44705;DHT22;30431;48.520;9.046;2023-07-20T15:07:57;26.10;40.10
44705;DHT22;30431;48.520;9.046;2023-07-20T15:10:24;26.30;38.30
44705;DHT22;30431;48.520;9.046;2023-07-20T15:12:53;26.50;40.40
44705;DHT22;30431;48.520;9.046;2023-07-20T15:15:24;26.70;39.00
44705;DHT22;30431;48.520;9.046;2023-07-20T15:17:51;26.60;36.50
44705;DHT22;30431;48.520;9.046;2023-07-20T15:20:19;26.20;37.80
44705;DHT22;30431;48.520;9.046;2023-07-20T15:22:49;26.30;37.60
44705;DHT22;30431;48.520;9.046;2023-07-20T15:25:18;26.60;37.20
44705;DHT22;30431;48.520;9.046;2023-07-20T15:27:49;26.80;39.10
44705;DHT22;30431;48.520;9.046;2023-07-20T15:30:18;27.00;37.00
44705;DHT22;30431;48.520;9.046;2023-07-20T15:32:48;27.10;36.60
44705;DHT22;30431;48.520;9.046;2023-07-20T15:35:18;26.80;35.90
44705;DHT22;30431;48.520;9.046;2023-07-20T15:37:50;26.80;37.10
44705;DHT22;30431;48.520;9.046;2023-07-20T15:40:17;27.10;38.80
44705;DHT22;30431;48.520;9.046;2023-07-20T15:42:48;26.90;36.30
44705;DHT22;30431;48.520;9.046;2023-07-20T15:45:17;27.10;37.60
44705;DHT22;30431;48.520;9.046;2023-07-20T15:47:47;26.90;36.90
44705;DHT22;30431;48.520;9.046;2023-07-20T15:50:16;26.70;37.10
44705;DHT22;30431;48.520;9.046;2023-07-20T15:52:47;26.80;39.10
44705;DHT22;30431;48.520;9.046;2023-07-20T15:55:16;26.80;35.00
44705;DHT22;30431;48.520;9.046;2023-07-20T15:57:43;26.40;36.20
44705;DHT22;30431;48.520;9.046;2023-07-20T16:00:10;26.50;37.70
44705;DHT22;30431;48.520;9.046;2023-07-20T16:02:37;26.60;37.60
44705;DHT22;30431;48.520;9.046;2023-07-20T16:05:06;26.50;37.60